sensor_id;sensor_type;location;lat;lon;timestamp;temperature;humidity
52439;DHT22;38359;53.150;6.504;2023-04-28T00:07:19;6.50;99.90
52439;DHT22;38359;53.150;6.504;2023-04-28T00:17:44;6.40;99.90
52439;DHT22;38359;53.150;6.504;2023-04-28T00:28:10;6.30;99.90
52439;DHT22;38359;53.150;6.504;2023-04-28T00:38:36;6.40;99.90
52439;DHT22;38359;53.150;6.504;2023-04-28T00:49:03;6.40;99.90
52439;DHT22;38359;53.150;6.504;2023-04-28T00:59:30;6.40;99.90
52439;DHT22;38359;53.150;6.504;2023-04-28T01:09:56;6.30;99.90
52439;DHT22;38359;53.150;6.504;2023-04-28T01:20:21;6.30;99.90
52439;DHT22;38359;53.150;6.504;2023-04-28T01:30:47;6.40;99.90
52439;DHT22;38359;53.150;6.504;2023-04-28T01:41:14;6.30;99.90
52439;DHT22;38359;53.150;6.504;2023-04-28T01:51:40;6.20;99.90
52439;DHT22;38359;53.150;6.504;2023-04-28T02:02:07;6.00;99.90
52439;DHT22;38359;53.150;6.504;2023-04-28T02:12:33;6.00;99.90
52439;DHT22;38359;53.150;6.504;2023-04-28T02:23:00;6.30;99.90
52439;DHT22;38359;53.150;6.504;2023-04-28T02:33:25;6.10;99.90
52439;DHT22;38359;53.150;6.504;2023-04-28T02:43:51;6.40;99.90
52439;DHT22;38359;53.150;6.504;2023-04-28T02:54:17;5.40;99.90
52439;DHT22;38359;53.150;6.504;2023-04-28T03:04:51;6.20;99.90
52439;DHT22;38359;53.150;6.504;2023-04-28T03:15:17;6.10;99.90
52439;DHT22;38359;53.150;6.504;2023-04-28T03:25:43;6.10;99.90
52439;DHT22;38359;53.150;6.504;2023-04-28T03:36:09;6.20;99.90
52439;DHT22;38359;53.150;6.504;2023-04-28T03:46:34;6.20;99.90
52439;DHT22;38359;53.150;6.504;2023-04-28T03:57:00;6.20;99.90
52439;DHT22;38359;53.150;6.504;2023-04-28T04:07:26;6.20;99.90
52439;DHT22;38359;53.150;6.504;2023-04-28T04:17:52;6.30;99.90
52439;DHT22;38359;53.150;6.504;2023-04-28T04:28:18;6.30;99.90
52439;DHT22;38359;53.150;6.504;2023-04-28T04:38:43;6.40;99.90
52439;DHT22;38359;53.150;6.504;2023-04-28T04:49:09;6.30;99.90
52439;DHT22;38359;53.150;6.504;2023-04-28T04:59:36;6.40;99.90
52439;DHT22;38359;53.150;6.504;2023-04-28T05:10:02;6.40;99.90
52439;DHT22;38359;53.150;6.504;2023-04-28T05:20:28;6.50;99.90
52439;DHT22;38359;53.150;6.504;2023-04-28T05:30:54;6.60;99.90
52439;DHT22;38359;53.150;6.504;2023-04-28T05:41:20;6.70;99.90
52439;DHT22;38359;53.150;6.504;2023-04-28T05:51:46;6.90;99.90
52439;DHT22;38359;53.150;6.504;2023-04-28T06:02:11;7.10;99.90
52439;DHT22;38359;53.150;6.504;2023-04-28T06:12:37;6.80;99.90
52439;DHT22;38359;53.150;6.504;2023-04-28T06:23:03;7.40;99.90
52439;DHT22;38359;53.150;6.504;2023-04-28T06:33:29;7.40;99.90
52439;DHT22;38359;53.150;6.504;2023-04-28T06:43:55;7.70;99.90
52439;DHT22;38359;53.150;6.504;2023-04-28T06:54:21;8.00;99.90
52439;DHT22;38359;53.150;6.504;2023-04-28T07:04:47;8.20;99.90
52439;DHT22;38359;53.150;6.504;2023-04-28T07:15:13;8.20;99.90
52439;DHT22;38359;53.150;6.504;2023-04-28T07:25:39;8.60;99.90
52439;DHT22;38359;53.150;6.504;2023-04-28T07:36:06;8.70;99.90
52439;DHT22;38359;53.150;6.504;2023-04-28T07:46:32;8.70;99.90
52439;DHT22;38359;53.150;6.504;2023-04-28T07:56:58;8.90;99.90
52439;DHT22;38359;53.150;6.504;2023-04-28T08:07:24;9.40;99.90
52439;DHT22;38359;53.150;6.504;2023-04-28T08:17:49;9.50;99.90
52439;DHT22;38359;53.150;6.504;2023-04-28T08:28:16;9.30;99.90
52439;DHT22;38359;53.150;6.504;2023-04-28T08:38:42;9.50;99.90
52439;DHT22;38359;53.150;6.504;2023-04-28T08:49:16;9.60;99.90
52439;DHT22;38359;53.150;6.504;2023-04-28T08:59:42;9.80;99.90
52439;DHT22;38359;53.150;6.504;2023-04-28T09:10:22;10.40;99.90
52439;DHT22;38359;53.150;6.504;2023-04-28T09:20:49;10.70;99.90
52439;DHT22;38359;53.150;6.504;2023-04-28T09:31:24;10.90;99.90
52439;DHT22;38359;53.150;6.504;2023-04-28T09:41:52;11.30;99.90
52439;DHT22;38359;53.150;6.504;2023-04-28T09:52:18;11.60;99.90
52439;DHT22;38359;53.150;6.504;2023-04-28T10:02:44;12.00;99.90
52439;DHT22;38359;53.150;6.504;2023-04-28T10:13:10;12.60;99.90
52439;DHT22;38359;53.150;6.504;2023-04-28T10:23:49;12.80;99.90
52439;DHT22;38359;53.150;6.504;2023-04-28T10:34:31;12.70;99.90
52439;DHT22;38359;53.150;6.504;2023-04-28T10:44:57;13.10;99.90
52439;DHT22;38359;53.150;6.504;2023-04-28T10:55:30;13.40;99.90
52439;DHT22;38359;53.150;6.504;2023-04-28T11:06:20;13.00;99.90
52439;DHT22;38359;53.150;6.504;2023-04-28T11:17:10;12.80;99.90
52439;DHT22;38359;53.150;6.504;2023-04-28T11:27:41;13.30;99.90
52439;DHT22;38359;53.150;6.504;2023-04-28T11:38:07;13.10;99.90
52439;DHT22;38359;53.150;6.504;2023-04-28T11:48:33;13.20;99.90
52439;DHT22;38359;53.150;6.504;2023-04-28T11:59:00;13.50;99.90
52439;DHT22;38359;53.150;6.504;2023-04-28T12:09:30;13.70;99.90
52439;DHT22;38359;53.150;6.504;2023-04-28T12:19:59;13.30;99.90
52439;DHT22;38359;53.150;6.504;2023-04-28T12:30:28;13.40;99.90
52439;DHT22;38359;53.150;6.504;2023-04-28T12:40:55;13.40;99.90
52439;DHT22;38359;53.150;6.504;2023-04-28T12:51:21;13.40;99.90
52439;DHT22;38359;53.150;6.504;2023-04-28T13:01:48;13.70;99.90
52439;DHT22;38359;53.150;6.504;2023-04-28T13:12:14;14.10;99.90
52439;DHT22;38359;53.150;6.504;2023-04-28T13:22:40;13.90;99.90
52439;DHT22;38359;53.150;6.504;2023-04-28T13:33:06;14.10;99.90
52439;DHT22;38359;53.150;6.504;2023-04-28T13:43:32;13.80;99.90
52439;DHT22;38359;53.150;6.504;2023-04-28T13:53:58;14.10;99.90
52439;DHT22;38359;53.150;6.504;2023-04-28T14:04:24;13.70;99.90
52439;DHT22;38359;53.150;6.504;2023-04-28T14:14:50;13.50;99.90
52439;DHT22;38359;53.150;6.504;2023-04-28T14:25:16;13.50;99.90
52439;DHT22;38359;53.150;6.504;2023-04-28T14:35:43;13.60;99.90
52439;DHT22;38359;53.150;6.504;2023-04-28T14:46:10;13.70;99.90
52439;DHT22;38359;53.150;6.504;2023-04-28T14:56:35;13.50;99.90
52439;DHT22;38359;53.150;6.504;2023-04-28T15:07:01;13.30;99.90
52439;DHT22;38359;53.150;6.504;2023-04-28T15:17:27;13.30;99.90
52439;DHT22;38359;53.150;6.504;2023-04-28T15:27:53;13.50;99.90
52439;DHT22;38359;53.150;6.504;2023-04-28T15:38:19;13.10;99.90
52439;DHT22;38359;53.150;6.504;2023-04-28T15:48:45;13.00;99.90
52439;DHT22;38359;53.150;6.504;2023-04-28T15:59:11;13.10;99.90
52439;DHT22;38359;53.150;6.504;2023-04-28T16:09:40;12.90;99.90
52439;DHT22;38359;53.150;6.504;2023-04-28T16:20:07;12.70;99.90
52439;DHT22;38359;53.150;6.504;2023-04-28T16:30:34;13.00;99.90
52439;DHT22;38359;53.150;6.504;2023-04-28T16:41:00;13.00;99.90
52439;DHT22;38359;53.150;6.504;2023-04-28T16:51:26;13.10;99.90
52439;DHT22;38359;53.150;6.504;2023-04-28T17:01:52;13.00;99.90
52439;DHT22;38359;53.150;6.504;2023-04-28T17:12:20;13.30;99.90
52439;DHT22;38359;53.150;6.504;2023-04-28T17:22:48;13.70;99.90
52439;DHT22;38359;53.150;6.504;2023-04-28T17:33:14;13.10;99.90
52439;DHT22;38359;53.150;6.504;2023-04-28T17:43:40;13.00;99.90
52439;DHT22;38359;53.150;6.504;2023-04-28T17:54:06;13.10;99.90
52439;DHT22;38359;53.150;6.504;2023-04-28T18:04:33;12.80;99.90
52439;DHT22;38359;53.150;6.504;2023-04-28T18:14:59;12.90;99.90
52439;DHT22;38359;53.150;6.504;2023-04-28T18:25:25;12.80;99.90
52439;DHT22;38359;53.150;6.504;2023-04-28T18:36:02;12.60;99.90
52439;DHT22;38359;53.150;6.504;2023-04-28T18:46:29;12.50;99.90
52439;DHT22;38359;53.150;6.504;2023-04-28T18:56:55;12.30;99.90
52439;DHT22;38359;53.150;6.504;2023-04-28T19:07:21;12.30;99.90
52439;DHT22;38359;53.150;6.504;2023-04-28T19:17:47;12.20;99.90
52439;DHT22;38359;53.150;6.504;2023-04-28T19:28:13;12.20;99.90
52439;DHT22;38359;53.150;6.504;2023-04-28T19:38:39;12.10;99.90
52439;DHT22;38359;53.150;6.504;2023-04-28T19:49:04;11.90;99.90
52439;DHT22;38359;53.150;6.504;2023-04-28T19:59:30;12.20;99.90
52439;DHT22;38359;53.150;6.504;2023-04-28T20:09:57;11.90;99.90
52439;DHT22;38359;53.150;6.504;2023-04-28T20:20:22;11.80;99.90
52439;DHT22;38359;53.150;6.504;2023-04-28T20:30:48;11.80;99.90
52439;DHT22;38359;53.150;6.504;2023-04-28T20:41:14;11.50;99.90
52439;DHT22;38359;53.150;6.504;2023-04-28T20:51:41;11.60;99.90
52439;DHT22;38359;53.150;6.504;2023-04-28T21:02:11;11.50;99.90
52439;DHT22;38359;53.150;6.504;2023-04-28T21:12:36;11.40;99.90
52439;DHT22;38359;53.150;6.504;2023-04-28T21:23:02;11.30;99.90
52439;DHT22;38359;53.150;6.504;2023-04-28T21:33:29;11.20;99.90
52439;DHT22;38359;53.150;6.504;2023-04-28T21:43:55;11.20;99.90
52439;DHT22;38359;53.150;6.504;2023-04-28T21:54:21;11.40;99.90
52439;DHT22;38359;53.150;6.504;2023-04-28T22:04:47;11.40;99.90
52439;DHT22;38359;53.150;6.504;2023-04-28T22:15:13;11.10;99.90
52439;DHT22;38359;53.150;6.504;2023-04-28T22:25:39;11.20;99.90
52439;DHT22;38359;53.150;6.504;2023-04-28T22:36:05;11.10;99.90
52439;DHT22;38359;53.150;6.504;2023-04-28T22:46:31;10.90;99.90
52439;DHT22;38359;53.150;6.504;2023-04-28T22:56:57;11.00;99.90
52439;DHT22;38359;53.150;6.504;2023-04-28T23:07:23;10.90;99.90
52439;DHT22;38359;53.150;6.504;2023-04-28T23:17:49;10.90;99.90
52439;DHT22;38359;53.150;6.504;2023-04-28T23:28:15;10.80;99.90
52439;DHT22;38359;53.150;6.504;2023-04-28T23:38:41;10.70;99.90
52439;DHT22;38359;53.150;6.504;2023-04-28T23:49:07;10.70;99.90
52439;DHT22;38359;53.150;6.504;2023-04-28T23:59:33;10.70;99.90
